Inyokern, CA (93527)

12:42 PM PDT on September 21, 2014 (GMT -0700)
NonFedAWOS INYOKERN CA US SUPERAWOS | Change Station
CLOSE
Current Station
Personal Weather Station
Location: Pearsonville, CA
Elevation: 2455 ft
Nearby Weather Stations

Elev 2455 ft 35.66 °N, 117.83 °W | Updated 47 minutes ago

Clear
Clear
84 °F
Feels Like 82 °F
N
7
Wind Variable Wind from NE
Gusts 0.0 mph

Today
High -- | Low -- °F
--% Chance of Precip.
Yesterday
High -- | Low -- °F
Precip. -- in
6:38 AM 6:49 PM
Waning Crescent, 5% visible
Pressure 29.93 in
Visibility 10.0 miles
Clouds Clear
Heat Index 82 °F
Dew Point 46 °F
Humidity 27%
Rainfall -999.00 in
Snow Depth 0 in , 0 in , 0 in
UV 9 out of 12
Pollen 7.10 out of 12
Air Quality Not available.
Flu Activity Not available.
METAR KNID 211856Z AUTO 11003KT 10SM CLR 30/10 A2999 RMK AO2 SLP133 T03000100 $

More Conditions Fewer Conditions

Pressure 29.93 in
Visibility 10.0 miles
Clouds Clear
Heat Index 82 °F
Dew Point 46 °F
Humidity 27%
Rainfall -999.00 in
Snow Depth 0 in , 0 in , 0 in
UV 9 out of 12
Pollen 7.10 out of 12
Air Quality Not available.
Flu Activity Not available.
METAR KNID 211856Z AUTO 11003KT 10SM CLR 30/10 A2999 RMK AO2 SLP133 T03000100 $

More Conditions Fewer Conditions

10-Day Weather Forecast

Almanac

Astronomy

Sep. 21, 2014 Rise Set
Actual Time 6:38 AM PDT 6:49 PM PDT
Civil Twilight 6:13 AM PDT 7:14 PM PDT
Nautical Twilight 5:43 AM PDT 7:44 PM PDT
Astronomical Twilight 5:13 AM PDT 8:14 PM PDT
Moon 4:20 AM PDT 5:25 PM PDT
Length of Visible Light 13h 01m
Length of Day
12h 10m
Tomorrow will be 2m 14s shorter.
Waning Crescent, 5% of the Moon is Illuminated
Today
Waning Crescent
Sep 24
New
Oct 1
First Quarter
Oct 8
Full
Oct 15
Last Quarter

Today's Extremes

State Highs State Lows

Community

WunderPhotos

Upload Photos

1,755,233 photos uploaded!

Nearby

Snow Depth

Station Depth Elevation
Hagan's Meadow 0 in 8000 ft
Echo Peak 0 in 7800 ft
Burnside Lake 0 in 8139 ft
Spratt Creek 0 in 6200 ft
Squaw Valley 0 in 8200 ft

Earthquake Activity

City Distance Mag. Time & Date
Inyokern, California 24 miles 3.1 5:33 PM PDT
2014-09-19
Corcoran, California 104 miles 2.9 3:59 PM PDT
2014-09-18
Minimum magnitude displayed is 2.5.

Coastal Water Temperatures

Place Temperature
No Stations Reporting

Nearby Weather Stations